Time;durP1;ratioP1;P1;durP2;ratioP2;P2;SDS_P1;SDS_P2;PMS_P1;PMS_P2;Temp;Humidity;BMP_temperature;BMP_pressure;BME280_temperature;BME280_humidity;BME280_pressure;Samples;Min_cycle;Max_cycle;Signal;HPM_P1;HPM_P2
2022/04/01 00:00:51;;;;;;;12.68;11.43;;;6.50;99.90;;;;;;5988753;23;20210;-81
2022/04/01 00:03:36;;;;;;;12.30;11.10;;;6.50;99.90;;;;;;6007274;23;20189;-82
2022/04/01 00:06:04;;;;;;;13.90;12.60;;;6.50;99.90;;;;;;6002679;23;20186;-82
2022/04/01 00:08:30;;;;;;;13.02;11.73;;;6.50;99.90;;;;;;5986833;23;20218;-81
2022/04/01 00:10:59;;;;;;;13.35;12.07;;;6.40;99.90;;;;;;5987132;23;20226;-81
2022/04/01 00:13:26;;;;;;;14.13;12.63;;;6.40;99.90;;;;;;5997889;23;20195;-81
2022/04/01 00:15:53;;;;;;;14.10;12.70;;;6.40;99.90;;;;;;6002246;23;20194;-82
2022/04/01 00:18:20;;;;;;;13.85;12.52;;;6.40;99.90;;;;;;5989033;23;20195;-81
2022/04/01 00:20:47;;;;;;;12.88;11.57;;;6.50;99.90;;;;;;5992923;23;20220;-81
2022/04/01 00:23:14;;;;;;;12.55;11.32;;;6.50;99.90;;;;;;5995533;23;20190;-82
2022/04/01 00:25:42;;;;;;;13.40;12.10;;;6.50;99.90;;;;;;6003112;23;20198;-81
2022/04/01 00:28:11;;;;;;;12.00;10.80;;;6.40;99.90;;;;;;6003945;23;20186;-81
2022/04/01 00:30:39;;;;;;;11.95;10.82;;;6.40;99.90;;;;;;6003443;23;20662;-82
2022/04/01 00:33:08;;;;;;;12.50;11.13;;;6.40;99.90;;;;;;6003933;23;20194;-81
2022/04/01 00:35:35;;;;;;;12.23;11.00;;;6.40;99.90;;;;;;5998067;23;20205;-81
2022/04/01 00:38:02;;;;;;;12.25;11.05;;;6.30;99.90;;;;;;5979850;23;20302;-81
2022/04/01 00:40:30;;;;;;;12.50;11.30;;;6.40;99.90;;;;;;5994423;23;20253;-81
2022/04/01 00:42:57;;;;;;;12.25;11.15;;;6.40;99.90;;;;;;6001678;23;20795;-81
2022/04/01 00:45:25;;;;;;;12.35;11.00;;;6.40;99.90;;;;;;5995048;23;20200;-81
2022/04/01 00:47:54;;;;;;;13.02;11.57;;;6.30;99.90;;;;;;5994609;23;20198;-81
2022/04/01 00:50:22;;;;;;;12.95;11.65;;;6.30;99.90;;;;;;5985417;23;20222;-81
2022/04/01 00:52:49;;;;;;;12.90;11.60;;;6.20;99.90;;;;;;5993082;23;20230;-82
2022/04/01 00:55:16;;;;;;;12.95;11.65;;;6.10;99.90;;;;;;6004201;23;20190;-81
2022/04/01 00:57:43;;;;;;;13.48;12.18;;;6.10;99.90;;;;;;5996328;23;20199;-81
2022/04/01 01:00:12;;;;;;;14.13;12.77;;;6.10;99.90;;;;;;5987106;23;20214;-81
2022/04/01 01:02:41;;;;;;;12.70;11.40;;;6.00;99.90;;;;;;6004247;23;20589;-81
2022/04/01 01:05:09;;;;;;;13.25;11.95;;;6.10;99.90;;;;;;5998189;23;20195;-82
2022/04/01 01:07:37;;;;;;;14.27;12.77;;;6.00;99.90;;;;;;5978629;23;20198;-82
2022/04/01 01:10:04;;;;;;;14.40;13.00;;;6.00;99.90;;;;;;5984568;23;20577;-82
2022/04/01 01:12:31;;;;;;;13.15;11.95;;;6.00;99.90;;;;;;6003214;23;20967;-81
2022/04/01 01:15:07;;;;;;;12.85;11.55;;;5.90;99.90;;;;;;6002950;23;20209;-81
2022/04/01 01:17:34;;;;;;;13.25;12.00;;;5.90;99.90;;;;;;5979871;23;20186;-82
2022/04/01 01:20:03;;;;;;;14.63;13.15;;;5.80;99.90;;;;;;5983911;23;20290;-82
2022/04/01 01:22:30;;;;;;;12.35;11.25;;;5.90;99.90;;;;;;5991920;23;20210;-81
2022/04/01 01:24:59;;;;;;;13.43;12.18;;;5.90;99.90;;;;;;5994562;23;20190;-81
2022/04/01 01:27:26;;;;;;;13.90;12.50;;;5.90;99.90;;;;;;6005885;23;20196;-81
2022/04/01 01:29:53;;;;;;;13.77;12.38;;;5.90;99.90;;;;;;5988437;23;20575;-82
2022/04/01 01:32:22;;;;;;;12.73;11.45;;;5.90;99.90;;;;;;5997603;23;20301;-82
2022/04/01 01:34:49;;;;;;;11.90;10.70;;;5.90;99.90;;;;;;5993125;23;20201;-81
2022/04/01 01:37:16;;;;;;;12.73;11.52;;;5.90;99.90;;;;;;6003162;23;20325;-81
2022/04/01 01:39:43;;;;;;;12.50;11.30;;;5.90;99.90;;;;;;5994133;23;20289;-81
2022/04/01 01:42:11;;;;;;;12.40;11.10;;;5.90;99.90;;;;;;6002106;23;20194;-81
2022/04/01 01:44:38;;;;;;;13.38;12.07;;;5.90;99.90;;;;;;6002704;23;20277;-81
2022/04/01 01:47:06;;;;;;;12.48;11.27;;;5.90;99.90;;;;;;5996679;23;20282;-81
2022/04/01 01:49:33;;;;;;;13.77;12.38;;;5.90;99.90;;;;;;6004005;23;20285;-81
2022/04/01 01:54:45;;;;;;;12.98;11.77;;;5.80;99.90;;;;;;5988755;23;20201;-82
2022/04/01 01:57:15;;;;;;;13.68;12.18;;;5.80;99.90;;;;;;5994434;23;20191;-81
2022/04/01 01:59:43;;;;;;;13.35;12.05;;;5.70;99.90;;;;;;5989100;23;20210;-82
2022/04/01 02:02:10;;;;;;;13.27;11.98;;;5.70;99.90;;;;;;5991101;23;20194;-81
2022/04/01 02:04:39;;;;;;;14.73;13.25;;;5.70;99.90;;;;;;6003310;23;20217;-81
2022/04/01 02:07:06;;;;;;;14.90;13.40;;;5.80;99.90;;;;;;5993422;23;20198;-82
2022/04/01 02:09:33;;;;;;;14.93;13.45;;;5.80;99.90;;;;;;5990119;23;20241;-82
2022/04/01 02:12:01;;;;;;;13.98;12.57;;;5.80;99.90;;;;;;6001526;23;20949;-81
2022/04/01 02:14:30;;;;;;;13.25;11.95;;;5.80;99.90;;;;;;6001387;23;20205;-82
2022/04/01 02:16:58;;;;;;;13.88;12.55;;;5.80;99.90;;;;;;5977336;23;20285;-82
2022/04/01 02:19:25;;;;;;;12.52;11.32;;;5.70;99.90;;;;;;5986189;23;20712;-81
2022/04/01 02:21:53;;;;;;;11.20;10.00;;;5.70;99.90;;;;;;5983721;23;20230;-82
2022/04/01 02:24:21;;;;;;;10.45;9.45;;;5.70;99.90;;;;;;5992505;23;20547;-82
2022/04/01 02:26:48;;;;;;;11.45;10.30;;;5.60;99.90;;;;;;6000880;23;20198;-82
2022/04/01 02:29:18;;;;;;;11.27;10.25;;;5.60;99.90;;;;;;5985849;23;20216;-81
2022/04/01 02:31:47;;;;;;;11.90;10.80;;;5.60;99.90;;;;;;5977612;23;20297;-81
2022/04/01 02:34:14;;;;;;;12.25;11.10;;;5.50;99.90;;;;;;6003596;23;20229;-81
2022/04/01 02:36:42;;;;;;;12.57;11.35;;;5.50;99.90;;;;;;6003111;23;20200;-82
2022/04/01 02:39:09;;;;;;;12.20;11.00;;;5.40;99.90;;;;;;5996626;23;20293;-82
2022/04/01 02:41:36;;;;;;;11.80;10.70;;;5.50;99.90;;;;;;6003378;23;20198;-82
2022/04/01 02:44:09;;;;;;;11.63;10.48;;;5.40;99.90;;;;;;5990063;23;20178;-81
2022/04/01 02:46:37;;;;;;;11.40;10.30;;;5.40;99.90;;;;;;6002281;23;20606;-81
2022/04/01 02:49:07;;;;;;;12.52;11.32;;;5.40;99.90;;;;;;6003225;23;20296;-82
2022/04/01 02:51:36;;;;;;;12.32;11.07;;;5.40;99.90;;;;;;6002260;23;20281;-82
2022/04/01 02:54:06;;;;;;;11.60;10.57;;;5.40;99.90;;;;;;5991347;23;20250;-81
2022/04/01 02:56:34;;;;;;;12.60;11.40;;;5.40;99.90;;;;;;6006330;23;20190;-81
2022/04/01 02:59:02;;;;;;;12.98;11.68;;;5.40;99.90;;;;;;6008833;23;20224;-81
2022/04/01 03:01:30;;;;;;;11.95;10.68;;;5.40;99.90;;;;;;6004701;23;20260;-81
2022/04/01 03:03:58;;;;;;;13.18;11.88;;;5.40;99.90;;;;;;5991456;23;20559;-81
2022/04/01 03:06:26;;;;;;;12.13;11.02;;;5.50;99.90;;;;;;5998622;23;20600;-81
2022/04/01 03:08:54;;;;;;;12.32;11.10;;;5.50;99.90;;;;;;6002926;23;20233;-81
2022/04/01 03:11:20;;;;;;;12.88;11.63;;;5.50;99.90;;;;;;6003546;23;20576;-81
2022/04/01 03:13:47;;;;;;;12.38;11.18;;;5.50;99.90;;;;;;6001738;23;20197;-81
2022/04/01 03:16:14;;;;;;;13.25;12.05;;;5.40;99.90;;;;;;5995448;23;20664;-81
2022/04/01 03:18:41;;;;;;;12.82;11.63;;;5.50;99.90;;;;;;6003260;23;20238;-81
2022/04/01 03:21:10;;;;;;;12.73;11.52;;;5.50;99.90;;;;;;6004260;23;20581;-81
2022/04/01 03:23:44;;;;;;;12.05;10.95;;;5.50;99.90;;;;;;5999649;23;20202;-81
2022/04/01 03:26:11;;;;;;;12.60;11.50;;;5.50;99.90;;;;;;5978151;23;20198;-81
2022/04/01 03:28:39;;;;;;;11.20;10.18;;;5.50;99.90;;;;;;5995378;23;20289;-81
2022/04/01 03:31:06;;;;;;;13.00;11.80;;;5.50;99.90;;;;;;6000468;23;20198;-81
2022/04/01 03:33:33;;;;;;;12.25;11.13;;;5.50;99.90;;;;;;5993868;23;20274;-81
2022/04/01 03:36:01;;;;;;;10.80;9.80;;;5.50;99.90;;;;;;6004252;23;20704;-81
2022/04/01 03:38:28;;;;;;;10.90;9.93;;;5.50;99.90;;;;;;5996154;23;20214;-81
2022/04/01 03:40:57;;;;;;;10.60;9.70;;;5.50;99.90;;;;;;5991026;23;20270;-81
2022/04/01 03:43:26;;;;;;;10.55;9.63;;;5.50;99.90;;;;;;6003848;23;20317;-81
2022/04/01 03:45:54;;;;;;;10.65;9.75;;;5.50;99.90;;;;;;6000126;23;20194;-82
2022/04/01 03:48:27;;;;;;;10.60;9.70;;;5.50;99.90;;;;;;6003406;23;20241;-82
2022/04/01 03:50:57;;;;;;;11.45;10.38;;;5.50;99.90;;;;;;5990895;23;20225;-81
2022/04/01 03:53:27;;;;;;;10.73;9.80;;;5.60;99.90;;;;;;6004453;23;20309;-81
2022/04/01 03:55:57;;;;;;;10.63;9.63;;;5.50;99.90;;;;;;6000459;23;20668;-81
2022/04/01 03:58:29;;;;;;;10.10;9.20;;;5.60;99.90;;;;;;6003226;23;20218;-82
2022/04/01 04:00:59;;;;;;;10.88;10.00;;;5.60;99.90;;;;;;5990294;23;20698;-82
2022/04/01 04:03:27;;;;;;;10.82;9.82;;;5.60;99.90;;;;;;6000982;23;20206;-82
2022/04/01 04:05:54;;;;;;;9.88;8.98;;;5.60;99.90;;;;;;6003718;23;20219;-81
2022/04/01 04:08:23;;;;;;;10.77;9.77;;;5.60;99.90;;;;;;6004016;23;20681;-82
2022/04/01 04:10:51;;;;;;;9.57;8.57;;;5.60;99.90;;;;;;5982455;23;20201;-81
2022/04/01 04:13:21;;;;;;;9.65;8.75;;;5.60;99.90;;;;;;6003240;23;20310;-81
2022/04/01 04:15:56;;;;;;;10.05;9.15;;;5.60;99.90;;;;;;5998114;23;20216;-76
2022/04/01 04:18:33;;;;;;;9.80;9.00;;;5.60;99.90;;;;;;6002629;23;20210;-82
2022/04/01 04:21:11;;;;;;;9.90;9.10;;;5.60;99.90;;;;;;6004816;23;20329;-80
2022/04/01 04:23:46;;;;;;;8.60;7.90;;;5.60;99.90;;;;;;6003258;23;20202;-81
2022/04/01 04:26:16;;;;;;;9.25;8.45;;;5.60;99.90;;;;;;6003159;23;20193;-80
2022/04/01 04:28:49;;;;;;;9.65;8.85;;;5.60;99.90;;;;;;6002967;23;20214;-80
2022/04/01 04:31:24;;;;;;;9.55;8.75;;;5.60;99.90;;;;;;5991134;23;20274;-82
2022/04/01 04:33:56;;;;;;;9.70;8.80;;;5.60;99.90;;;;;;5997833;23;20197;-78
2022/04/01 04:36:31;;;;;;;8.38;7.68;;;5.60;99.90;;;;;;6000962;23;20217;-78
2022/04/01 04:39:01;;;;;;;10.23;9.35;;;5.60;99.90;;;;;;5997761;23;20224;-80
2022/04/01 04:41:28;;;;;;;11.55;10.60;;;5.60;99.90;;;;;;6000082;23;20187;-79
2022/04/01 04:43:58;;;;;;;9.35;8.65;;;5.60;99.90;;;;;;5994728;23;20201;-80
2022/04/01 04:46:27;;;;;;;12.02;10.93;;;5.60;99.90;;;;;;6001718;23;20198;-80
2022/04/01 04:48:55;;;;;;;10.90;10.10;;;5.60;99.90;;;;;;5999585;23;20553;-79
2022/04/01 04:51:24;;;;;;;9.20;8.40;;;5.50;99.90;;;;;;5982753;23;20209;-80
2022/04/01 04:53:52;;;;;;;8.98;8.18;;;5.40;99.90;;;;;;5992221;23;20740;-79
2022/04/01 04:56:19;;;;;;;10.45;9.55;;;5.30;99.90;;;;;;5999900;23;20270;-80
2022/04/01 05:01:38;;;;;;;9.05;8.35;;;5.40;99.90;;;;;;6000068;23;20220;-81
2022/04/01 05:04:27;;;;;;;8.80;8.15;;;5.40;99.90;;;;;;5999148;23;20202;-80
2022/04/01 05:07:02;;;;;;;9.20;8.35;;;5.40;99.90;;;;;;6000066;23;20669;-82
2022/04/01 05:09:39;;;;;;;8.50;7.80;;;5.30;99.90;;;;;;5993606;23;20224;-84
2022/04/01 05:12:16;;;;;;;7.53;6.93;;;5.30;99.90;;;;;;5996881;23;20205;-81
2022/04/01 05:14:57;;;;;;;8.27;7.57;;;5.20;99.90;;;;;;5991595;23;20630;-83
2022/04/01 05:17:27;;;;;;;7.35;6.75;;;5.20;99.90;;;;;;5994375;23;20233;-77
2022/04/01 05:19:58;;;;;;;11.85;10.90;;;5.30;99.90;;;;;;5998951;23;20274;-80
2022/04/01 05:22:36;;;;;;;8.70;8.00;;;5.40;99.90;;;;;;5993086;23;20190;-77
2022/04/01 05:25:05;;;;;;;7.13;6.53;;;5.40;99.90;;;;;;5996624;23;20312;-78
2022/04/01 05:27:40;;;;;;;7.95;7.30;;;5.30;99.90;;;;;;5988963;23;20714;-79
2022/04/01 05:30:13;;;;;;;7.53;6.93;;;5.30;99.90;;;;;;5999019;23;20186;-78
2022/04/01 05:32:58;;;;;;;7.32;6.72;;;5.30;99.90;;;;;;5992632;23;20236;-78
2022/04/01 05:35:29;;;;;;;7.20;6.65;;;5.30;99.90;;;;;;5997448;23;20261;-78
2022/04/01 05:37:57;;;;;;;8.30;7.68;;;5.20;99.90;;;;;;6001720;23;20206;-78
2022/04/01 05:40:24;;;;;;;8.25;7.45;;;5.20;99.90;;;;;;5993477;23;20562;-78
2022/04/01 05:42:53;;;;;;;8.27;7.55;;;5.20;99.90;;;;;;5993443;23;20221;-78
2022/04/01 05:45:20;;;;;;;8.30;7.60;;;5.10;99.90;;;;;;5998485;23;20642;-79
2022/04/01 05:47:49;;;;;;;7.97;7.28;;;5.10;99.90;;;;;;5997647;23;20305;-78
2022/04/01 05:50:19;;;;;;;8.00;7.40;;;5.10;99.90;;;;;;6000494;23;20293;-79
2022/04/01 05:52:48;;;;;;;8.05;7.35;;;5.00;99.90;;;;;;5999689;23;20210;-79
2022/04/01 05:55:16;;;;;;;7.78;7.07;;;5.00;99.90;;;;;;5993908;23;20178;-78
2022/04/01 05:57:43;;;;;;;7.47;6.85;;;5.10;99.90;;;;;;5988255;23;20207;-79
2022/04/01 06:00:12;;;;;;;8.32;7.63;;;5.10;99.90;;;;;;5988010;23;20240;-78
2022/04/01 06:03:13;;;;;;;8.85;7.95;;;5.20;99.90;;;;;;5993306;23;20221;-78
2022/04/01 06:05:48;;;;;;;7.80;7.15;;;5.20;99.90;;;;;;5996702;23;20182;-78
2022/04/01 06:08:24;;;;;;;7.60;6.90;;;5.20;99.90;;;;;;5995553;23;20546;-78
2022/04/01 06:11:03;;;;;;;7.28;6.57;;;5.10;99.90;;;;;;5995653;23;20269;-78
2022/04/01 06:13:42;;;;;;;7.88;7.18;;;5.00;99.90;;;;;;5997729;23;20226;-78
2022/04/01 06:16:20;;;;;;;7.55;6.95;;;5.00;99.90;;;;;;5998521;23;20226;-78
2022/04/01 06:18:54;;;;;;;7.95;7.25;;;4.90;99.90;;;;;;5991736;23;20189;-79
2022/04/01 06:21:24;;;;;;;7.20;6.60;;;4.90;99.90;;;;;;5995766;23;20182;-78
2022/04/01 06:24:06;;;;;;;8.02;7.32;;;4.80;99.90;;;;;;5991595;23;22160;-78
2022/04/01 06:26:39;;;;;;;7.20;6.50;;;4.80;99.90;;;;;;5991387;23;20235;-79
2022/04/01 06:29:20;;;;;;;7.35;6.75;;;4.80;99.90;;;;;;5993128;23;20183;-79
2022/04/01 06:31:52;;;;;;;8.50;7.38;;;4.80;99.90;;;;;;5989073;23;20277;-78
2022/04/01 06:34:23;;;;;;;9.30;8.50;;;4.70;99.90;;;;;;5999637;23;20224;-78
2022/04/01 06:36:54;;;;;;;7.88;7.18;;;4.60;99.90;;;;;;5994631;23;20698;-78
2022/04/01 06:39:27;;;;;;;7.80;7.20;;;4.60;99.90;;;;;;5991087;23;20189;-78
2022/04/01 06:41:56;;;;;;;8.43;7.72;;;4.60;99.90;;;;;;5996255;23;20185;-78
2022/04/01 06:44:23;;;;;;;6.93;6.32;;;4.70;99.90;;;;;;5990836;23;20190;-79
2022/04/01 06:46:51;;;;;;;7.53;6.93;;;4.70;99.90;;;;;;5997804;23;20214;-78
2022/04/01 06:49:19;;;;;;;7.53;6.90;;;4.70;99.90;;;;;;5992824;23;20216;-78
2022/04/01 06:51:47;;;;;;;8.15;7.45;;;4.70;99.90;;;;;;5991319;23;20634;-79
2022/04/01 06:54:16;;;;;;;8.52;7.82;;;4.70;99.90;;;;;;5990170;23;20288;-78
2022/04/01 06:56:43;;;;;;;9.43;8.60;;;4.70;99.90;;;;;;5994094;23;20206;-77
2022/04/01 06:59:10;;;;;;;10.35;9.45;;;4.80;99.90;;;;;;5994258;23;20202;-78
2022/04/01 07:01:38;;;;;;;9.20;8.40;;;4.80;99.90;;;;;;6000133;23;20235;-78
2022/04/01 07:04:05;;;;;;;8.43;7.72;;;4.90;99.90;;;;;;6001920;23;21025;-77
2022/04/01 07:06:34;;;;;;;7.85;7.25;;;5.00;99.90;;;;;;5989012;23;20210;-77
2022/04/01 07:09:02;;;;;;;7.43;6.82;;;5.00;99.90;;;;;;5989372;23;20244;-78
2022/04/01 07:11:31;;;;;;;6.78;6.18;;;4.90;99.90;;;;;;5995739;23;20270;-78
2022/04/01 07:13:57;;;;;;;5.93;5.43;;;4.90;99.90;;;;;;5997357;23;21831;-78
2022/04/01 07:16:25;;;;;;;7.20;6.60;;;4.90;99.90;;;;;;5997888;23;20202;-77
2022/04/01 07:18:52;;;;;;;6.60;5.43;;;4.90;99.90;;;;;;5995588;23;20740;-77
2022/04/01 07:21:19;;;;;;;6.30;5.80;;;4.80;99.90;;;;;;6001357;23;20186;-79
2022/04/01 07:23:45;;;;;;;6.30;5.80;;;4.70;99.90;;;;;;5993667;23;20190;-80
2022/04/01 07:26:14;;;;;;;5.40;5.00;;;4.70;99.90;;;;;;6000106;23;20221;-80
2022/04/01 07:28:41;;;;;;;5.32;4.93;;;4.70;99.90;;;;;;5994912;23;20201;-84
2022/04/01 07:33:49;;;;;;;5.65;5.10;;;4.60;99.90;;;;;;5997446;23;20212;-80
2022/04/01 07:36:16;;;;;;;5.80;5.30;;;4.70;99.90;;;;;;5995441;23;20309;-80
2022/04/01 07:38:44;;;;;;;5.22;4.82;;;4.70;99.90;;;;;;5994175;23;21130;-79
2022/04/01 07:41:11;;;;;;;5.30;4.90;;;4.80;99.90;;;;;;5997781;23;20197;-80
2022/04/01 07:43:39;;;;;;;5.85;5.35;;;4.80;99.90;;;;;;5993499;23;20186;-79
2022/04/01 07:46:06;;;;;;;5.22;4.82;;;4.80;99.90;;;;;;5993738;23;20205;-80
2022/04/01 07:48:33;;;;;;;5.22;4.82;;;4.80;99.90;;;;;;5990113;23;20205;-79
2022/04/01 07:51:00;;;;;;;5.03;4.63;;;4.90;99.90;;;;;;5992875;23;20217;-79
2022/04/01 07:53:27;;;;;;;5.45;4.95;;;4.80;99.90;;;;;;6000228;23;20210;-79
2022/04/01 07:55:55;;;;;;;5.07;4.68;;;4.80;99.90;;;;;;5995682;23;20212;-79
2022/04/01 07:58:22;;;;;;;5.30;4.85;;;4.80;99.90;;;;;;5990137;23;20193;-82
2022/04/01 08:00:51;;;;;;;5.65;5.15;;;4.80;99.90;;;;;;5979288;23;20788;-79
2022/04/01 08:03:18;;;;;;;5.30;4.90;;;4.70;99.90;;;;;;5996735;23;20225;-80
2022/04/01 08:05:44;;;;;;;5.80;5.30;;;4.60;99.90;;;;;;6000214;23;20251;-78
2022/04/01 08:08:11;;;;;;;5.20;4.80;;;4.60;99.90;;;;;;5998496;23;20203;-79
2022/04/01 08:10:39;;;;;;;5.40;4.90;;;4.60;99.90;;;;;;6000498;23;20182;-79
2022/04/01 08:13:06;;;;;;;5.60;5.10;;;4.60;99.90;;;;;;5994205;23;20275;-79
2022/04/01 08:15:33;;;;;;;5.32;4.82;;;4.50;99.90;;;;;;5999568;23;20613;-79
2022/04/01 08:18:02;;;;;;;5.65;5.15;;;4.50;99.90;;;;;;5996269;23;20274;-78
2022/04/01 08:20:29;;;;;;;5.80;5.30;;;4.50;99.90;;;;;;5997778;23;20265;-79
2022/04/01 08:22:56;;;;;;;6.47;5.88;;;4.50;99.90;;;;;;5996679;23;20190;-79
2022/04/01 08:25:23;;;;;;;5.65;5.15;;;4.60;99.90;;;;;;5999735;23;20212;-78
2022/04/01 08:27:50;;;;;;;5.75;5.25;;;4.50;99.90;;;;;;5998147;23;20277;-79
2022/04/01 08:30:17;;;;;;;4.35;4.00;;;4.50;99.90;;;;;;5989552;23;20648;-80
2022/04/01 08:32:44;;;;;;;4.90;4.50;;;4.40;99.90;;;;;;5995088;23;20179;-79
2022/04/01 08:35:13;;;;;;;6.03;5.53;;;4.40;99.90;;;;;;6000866;23;20822;-79
2022/04/01 08:37:40;;;;;;;4.90;4.50;;;4.50;99.90;;;;;;6001393;23;20697;-78
2022/04/01 08:40:08;;;;;;;5.97;5.47;;;4.40;99.90;;;;;;5998607;23;20213;-80
2022/04/01 08:42:36;;;;;;;5.38;4.97;;;4.40;99.90;;;;;;5988390;23;20188;-79
2022/04/01 08:45:06;;;;;;;5.70;5.20;;;4.40;99.90;;;;;;5996124;23;20231;-79
2022/04/01 08:47:35;;;;;;;5.97;5.47;;;4.50;99.90;;;;;;5992704;23;20194;-79
2022/04/01 08:50:03;;;;;;;5.50;5.00;;;4.50;99.90;;;;;;5995196;23;20189;-79
2022/04/01 08:52:31;;;;;;;6.28;5.78;;;4.60;99.90;;;;;;5997745;23;20192;-79
2022/04/01 08:55:04;;;;;;;6.00;5.50;;;4.60;99.90;;;;;;5999053;23;21004;-78
2022/04/01 08:57:35;;;;;;;5.53;5.03;;;4.80;99.90;;;;;;5999032;23;20191;-79
2022/04/01 09:00:03;;;;;;;5.47;4.95;;;4.80;99.90;;;;;;5994433;23;20273;-79
2022/04/01 09:02:30;;;;;;;5.45;5.05;;;4.80;99.90;;;;;;5999346;23;20190;-79
2022/04/01 09:05:04;;;;;;;5.03;4.63;;;4.80;99.90;;;;;;5986306;23;20196;-76
2022/04/01 09:07:32;;;;;;;5.85;5.35;;;4.80;99.90;;;;;;6000063;23;20182;-77
2022/04/01 09:10:02;;;;;;;5.95;5.43;;;4.80;99.90;;;;;;5998201;23;20250;-77
2022/04/01 09:12:29;;;;;;;6.57;5.97;;;4.80;99.90;;;;;;5998164;23;20276;-78
2022/04/01 09:14:58;;;;;;;5.75;5.25;;;4.80;99.90;;;;;;5999720;23;20220;-77
2022/04/01 09:17:40;;;;;;;6.55;6.05;;;4.80;99.90;;;;;;5989743;23;20186;-77
2022/04/01 09:20:09;;;;;;;5.70;5.18;;;4.80;99.90;;;;;;5984263;23;20274;-78
2022/04/01 09:22:39;;;;;;;6.40;5.80;;;4.80;99.90;;;;;;6000051;23;20213;-78
2022/04/01 09:25:09;;;;;;;6.68;6.07;;;4.80;99.90;;;;;;5997522;23;20217;-78
2022/04/01 09:27:38;;;;;;;6.88;6.22;;;4.90;99.90;;;;;;6001048;23;20190;-78
2022/04/01 09:30:06;;;;;;;6.18;5.68;;;4.90;99.90;;;;;;6002612;23;20280;-78
2022/04/01 09:32:37;;;;;;;6.68;6.10;;;4.70;99.90;;;;;;5987041;23;20755;-77
2022/04/01 09:35:06;;;;;;;7.32;6.65;;;4.60;99.90;;;;;;6000488;23;20241;-79
2022/04/01 09:37:42;;;;;;;6.50;5.90;;;4.60;99.90;;;;;;6001429;23;20569;-78
2022/04/01 09:40:12;;;;;;;6.82;6.22;;;4.50;99.90;;;;;;6002822;23;20200;-78
2022/04/01 09:42:40;;;;;;;4.93;4.53;;;4.50;99.90;;;;;;6001919;23;20289;-77
2022/04/01 09:45:08;;;;;;;5.55;5.07;;;4.50;99.90;;;;;;5998287;23;20256;-78
2022/04/01 09:47:39;;;;;;;5.25;4.85;;;4.50;99.90;;;;;;5987273;23;20191;-78
2022/04/01 09:50:17;;;;;;;6.45;5.85;;;4.40;99.90;;;;;;6000072;23;20602;-78
2022/04/01 09:52:49;;;;;;;6.55;6.00;;;4.50;99.90;;;;;;5998867;23;20194;-78
2022/04/01 09:55:17;;;;;;;5.80;5.35;;;4.50;99.90;;;;;;5996471;23;20292;-78
2022/04/01 09:57:44;;;;;;;5.88;5.38;;;4.60;99.90;;;;;;5997386;23;20198;-77
2022/04/01 10:00:12;;;;;;;5.45;5.05;;;4.60;99.90;;;;;;6000263;23;21545;-77
2022/04/01 10:02:40;;;;;;;5.38;4.97;;;4.70;99.90;;;;;;5998623;23;20202;-77
2022/04/01 10:05:08;;;;;;;5.25;4.85;;;4.80;99.90;;;;;;5999704;23;20233;-78
2022/04/01 10:07:37;;;;;;;5.22;4.72;;;4.80;99.90;;;;;;5997133;23;20186;-77
2022/04/01 10:10:08;;;;;;;4.20;3.90;;;4.90;99.90;;;;;;5992945;23;20641;-75
2022/04/01 10:12:42;;;;;;;5.40;5.00;;;4.80;99.90;;;;;;6001862;23;20193;-77
2022/04/01 10:15:10;;;;;;;5.22;4.72;;;4.90;99.90;;;;;;6001144;23;20222;-76
2022/04/01 10:17:40;;;;;;;4.90;4.50;;;4.90;99.90;;;;;;5995203;23;20446;-77
2022/04/01 10:20:08;;;;;;;4.20;3.90;;;5.00;99.90;;;;;;5996964;23;20197;-77
2022/04/01 10:22:37;;;;;;;4.10;3.80;;;5.00;99.90;;;;;;5996556;23;20194;-75
2022/04/01 10:25:15;;;;;;;4.32;4.03;;;5.00;99.90;;;;;;5991562;23;20602;-76
2022/04/01 10:27:47;;;;;;;5.38;4.97;;;4.90;99.90;;;;;;5990494;23;20204;-77
2022/04/01 10:30:17;;;;;;;4.63;4.32;;;5.00;99.90;;;;;;5995326;23;20271;-77
2022/04/01 10:32:45;;;;;;;4.25;3.92;;;5.10;99.90;;;;;;5992013;23;20185;-78
2022/04/01 10:35:23;;;;;;;4.75;4.45;;;5.10;99.90;;;;;;5997574;23;20226;-80
2022/04/01 10:37:56;;;;;;;4.60;4.22;;;5.20;99.90;;;;;;5996117;23;20196;-79
2022/04/01 10:40:32;;;;;;;5.10;4.70;;;5.20;99.90;;;;;;6000598;23;20653;-77
2022/04/01 10:43:10;;;;;;;4.85;4.55;;;5.20;99.90;;;;;;5994850;23;20189;-77
2022/04/01 10:45:39;;;;;;;4.90;4.50;;;5.30;99.90;;;;;;5997595;23;20732;-78
2022/04/01 10:54:00;;;;;;;5.47;5.07;;;5.30;99.90;;;;;;6000120;23;20819;-76
2022/04/01 10:56:34;;;;;;;5.18;4.78;;;5.20;99.90;;;;;;6000314;23;20226;-78
2022/04/01 10:59:07;;;;;;;5.03;4.72;;;5.10;99.90;;;;;;6000629;23;20697;-77
2022/04/01 11:01:35;;;;;;;5.43;5.03;;;5.10;99.90;;;;;;6003411;23;20626;-77
2022/04/01 11:04:23;;;;;;;5.13;4.72;;;5.00;99.90;;;;;;5994037;23;20197;-77
2022/04/01 11:06:51;;;;;;;5.60;5.20;;;5.10;99.90;;;;;;5997727;23;20270;-77
2022/04/01 11:09:51;;;;;;;4.70;4.30;;;5.00;99.90;;;;;;5999489;23;20191;-77
2022/04/01 11:12:29;;;;;;;4.10;3.80;;;5.10;99.90;;;;;;5976345;23;20226;-78
2022/04/01 11:15:20;;;;;;;4.65;4.25;;;5.10;99.90;;;;;;5995277;23;20229;-76
2022/04/01 11:18:07;;;;;;;4.60;4.30;;;5.10;99.90;;;;;;5995678;23;20193;-83
2022/04/01 11:20:37;;;;;;;4.72;4.43;;;5.10;99.90;;;;;;6001443;23;20240;-77
2022/04/01 11:23:06;;;;;;;4.95;4.65;;;5.30;99.90;;;;;;5984086;23;20673;-77
2022/04/01 11:25:53;;;;;;;4.80;4.40;;;5.20;99.90;;;;;;5986736;23;20210;-78
2022/04/01 11:28:24;;;;;;;5.40;5.00;;;5.30;99.90;;;;;;5986356;23;20646;-78
2022/04/01 11:31:20;;;;;;;5.20;4.80;;;5.30;99.90;;;;;;6001201;23;20190;-77
2022/04/01 11:34:00;;;;;;;5.00;4.60;;;5.40;99.90;;;;;;5991446;23;20198;-77
2022/04/01 11:36:28;;;;;;;5.72;5.32;;;5.40;99.90;;;;;;5991735;23;20577;-77
2022/04/01 11:38:55;;;;;;;5.53;5.13;;;5.30;99.90;;;;;;5995229;23;20265;-77
2022/04/01 11:41:23;;;;;;;4.95;4.57;;;5.40;99.90;;;;;;5997645;23;20218;-78
2022/04/01 11:43:52;;;;;;;5.93;5.50;;;5.40;99.90;;;;;;5992727;23;20249;-76
2022/04/01 11:46:19;;;;;;;5.40;5.00;;;5.40;99.90;;;;;;5994778;23;20210;-77
2022/04/01 11:48:48;;;;;;;6.10;5.63;;;5.50;99.90;;;;;;5998985;23;20305;-76
2022/04/01 11:51:17;;;;;;;5.47;5.07;;;5.60;99.90;;;;;;5999495;23;20193;-77
2022/04/01 11:53:49;;;;;;;5.30;4.90;;;5.50;99.90;;;;;;6001063;23;20630;-76
2022/04/01 11:56:17;;;;;;;5.72;5.32;;;5.50;99.90;;;;;;5998550;23;20598;-77
2022/04/01 11:58:54;;;;;;;6.18;5.70;;;5.50;99.90;;;;;;6001608;23;20215;-75
2022/04/01 12:01:23;;;;;;;6.10;5.70;;;5.50;99.90;;;;;;5999466;23;20182;-76
2022/04/01 12:03:50;;;;;;;5.75;5.35;;;5.50;99.90;;;;;;5998263;23;20221;-76
2022/04/01 12:09:07;;;;;;;5.45;5.05;;;5.90;99.90;;;;;;6001875;23;20194;-78
2022/04/01 12:11:40;;;;;;;6.18;5.78;;;5.90;99.90;;;;;;5996251;23;20265;-79
2022/04/01 12:14:09;;;;;;;6.32;5.82;;;5.90;99.90;;;;;;5993388;23;20183;-77
2022/04/01 12:16:41;;;;;;;6.45;5.95;;;5.90;99.90;;;;;;6001032;23;20192;-77
2022/04/01 12:19:14;;;;;;;7.03;6.53;;;5.80;99.90;;;;;;5998682;23;20299;-76
2022/04/01 12:21:41;;;;;;;6.68;6.18;;;5.80;99.90;;;;;;5997179;23;20190;-77
2022/04/01 12:24:09;;;;;;;6.05;5.65;;;5.70;99.90;;;;;;5998409;23;20197;-76
2022/04/01 12:26:36;;;;;;;6.30;5.90;;;5.60;99.90;;;;;;6002297;23;20201;-77
2022/04/01 12:29:03;;;;;;;6.43;5.97;;;5.40;99.90;;;;;;6002282;23;20438;-77
2022/04/01 12:31:31;;;;;;;6.65;6.15;;;5.30;99.90;;;;;;5991190;23;20324;-77
2022/04/01 12:33:59;;;;;;;7.70;7.10;;;5.20;99.90;;;;;;5993253;23;20286;-78
2022/04/01 12:36:31;;;;;;;8.80;8.10;;;5.10;99.90;;;;;;6000715;23;20225;-76
2022/04/01 12:39:04;;;;;;;8.50;7.65;;;5.00;99.90;;;;;;6003508;23;20228;-77
2022/04/01 12:41:31;;;;;;;8.77;8.18;;;4.90;99.90;;;;;;5999874;23;20523;-77
2022/04/01 12:44:00;;;;;;;8.18;7.57;;;4.80;99.90;;;;;;5991932;23;20263;-77
2022/04/01 12:46:33;;;;;;;8.68;7.97;;;4.60;99.90;;;;;;5988574;23;20192;-77
2022/04/01 12:49:10;;;;;;;7.95;7.35;;;4.50;99.90;;;;;;5996206;23;20220;-78
2022/04/01 12:51:39;;;;;;;8.90;8.20;;;4.40;99.90;;;;;;5989116;23;20217;-77
2022/04/01 12:54:09;;;;;;;8.75;8.10;;;4.40;99.90;;;;;;5999881;23;20231;-77
2022/04/01 12:56:37;;;;;;;10.02;9.18;;;4.50;99.90;;;;;;6001923;23;20650;-76
2022/04/01 12:59:09;;;;;;;8.63;7.93;;;4.60;99.90;;;;;;6002704;23;20279;-78
2022/04/01 13:01:40;;;;;;;8.35;7.65;;;4.60;99.90;;;;;;5996611;23;20241;-77
2022/04/01 13:04:08;;;;;;;9.57;8.80;;;4.80;99.90;;;;;;6004232;23;20194;-78
2022/04/01 13:06:35;;;;;;;9.10;8.40;;;4.80;99.90;;;;;;5996570;23;20213;-77
2022/04/01 13:09:07;;;;;;;8.80;8.15;;;4.70;99.90;;;;;;6002442;23;20213;-77
2022/04/01 13:11:41;;;;;;;9.52;8.82;;;4.80;99.90;;;;;;6000974;23;20190;-77
2022/04/01 13:14:20;;;;;;;9.60;8.80;;;4.90;99.90;;;;;;6001502;23;20192;-77
2022/04/01 13:16:49;;;;;;;10.55;9.68;;;4.90;99.90;;;;;;5995915;23;20217;-77
2022/04/01 13:19:26;;;;;;;9.05;8.25;;;4.90;99.90;;;;;;5995387;23;20241;-77
2022/04/01 13:21:55;;;;;;;9.82;9.02;;;4.90;99.90;;;;;;5994680;23;20190;-79